sensor_id;sensor_type;location;lat;lon;timestamp;P1;durP1;ratioP1;P2;durP2;ratioP2
17991;SDS011;9121;50.926;5.340;2022-11-02T00:00:51;14.00;;;2.83;;
17991;SDS011;9121;50.926;5.340;2022-11-02T00:03:19;20.85;;;2.50;;
17991;SDS011;9121;50.926;5.340;2022-11-02T00:05:47;13.15;;;2.33;;
17991;SDS011;9121;50.926;5.340;2022-11-02T00:08:14;11.55;;;2.70;;
17991;SDS011;9121;50.926;5.340;2022-11-02T00:10:40;14.60;;;2.55;;
17991;SDS011;9121;50.926;5.340;2022-11-02T00:13:07;11.15;;;2.03;;
17991;SDS011;9121;50.926;5.340;2022-11-02T00:15:36;9.32;;;1.88;;
17991;SDS011;9121;50.926;5.340;2022-11-02T00:18:04;10.70;;;2.35;;
17991;SDS011;9121;50.926;5.340;2022-11-02T00:20:34;13.10;;;1.90;;
17991;SDS011;9121;50.926;5.340;2022-11-02T00:23:02;14.77;;;2.85;;
17991;SDS011;9121;50.926;5.340;2022-11-02T00:25:31;14.93;;;2.72;;
17991;SDS011;9121;50.926;5.340;2022-11-02T00:27:58;11.02;;;1.98;;
17991;SDS011;9121;50.926;5.340;2022-11-02T00:30:25;14.15;;;2.35;;
17991;SDS011;9121;50.926;5.340;2022-11-02T00:32:54;18.45;;;2.53;;
17991;SDS011;9121;50.926;5.340;2022-11-02T00:35:21;19.63;;;3.83;;
17991;SDS011;9121;50.926;5.340;2022-11-02T00:37:48;11.30;;;2.38;;
17991;SDS011;9121;50.926;5.340;2022-11-02T00:40:15;15.30;;;2.33;;
17991;SDS011;9121;50.926;5.340;2022-11-02T00:42:42;11.68;;;2.17;;
17991;SDS011;9121;50.926;5.340;2022-11-02T00:45:09;14.90;;;2.60;;
17991;SDS011;9121;50.926;5.340;2022-11-02T00:47:36;15.50;;;3.05;;
17991;SDS011;9121;50.926;5.340;2022-11-02T00:50:06;16.95;;;2.45;;
17991;SDS011;9121;50.926;5.340;2022-11-02T00:52:34;7.22;;;2.30;;
17991;SDS011;9121;50.926;5.340;2022-11-02T00:55:01;15.90;;;2.53;;
17991;SDS011;9121;50.926;5.340;2022-11-02T00:57:28;15.63;;;2.35;;
17991;SDS011;9121;50.926;5.340;2022-11-02T00:59:55;12.20;;;2.22;;
17991;SDS011;9121;50.926;5.340;2022-11-02T01:02:22;10.15;;;2.10;;
17991;SDS011;9121;50.926;5.340;2022-11-02T01:04:49;10.88;;;2.40;;
17991;SDS011;9121;50.926;5.340;2022-11-02T01:07:17;13.68;;;2.70;;
17991;SDS011;9121;50.926;5.340;2022-11-02T01:09:44;17.55;;;2.35;;
17991;SDS011;9121;50.926;5.340;2022-11-02T01:12:11;12.07;;;2.15;;
17991;SDS011;9121;50.926;5.340;2022-11-02T01:14:38;9.55;;;2.42;;
17991;SDS011;9121;50.926;5.340;2022-11-02T01:17:05;13.85;;;2.60;;
17991;SDS011;9121;50.926;5.340;2022-11-02T01:19:32;20.20;;;3.13;;
17991;SDS011;9121;50.926;5.340;2022-11-02T01:21:59;15.00;;;2.60;;
17991;SDS011;9121;50.926;5.340;2022-11-02T01:24:28;17.30;;;2.65;;
17991;SDS011;9121;50.926;5.340;2022-11-02T01:26:55;17.70;;;2.50;;
17991;SDS011;9121;50.926;5.340;2022-11-02T01:29:22;19.25;;;2.72;;
17991;SDS011;9121;50.926;5.340;2022-11-02T01:31:49;9.80;;;1.92;;
17991;SDS011;9121;50.926;5.340;2022-11-02T01:34:17;14.52;;;2.78;;
17991;SDS011;9121;50.926;5.340;2022-11-02T01:36:44;13.13;;;2.10;;
17991;SDS011;9121;50.926;5.340;2022-11-02T01:39:12;11.10;;;1.92;;
17991;SDS011;9121;50.926;5.340;2022-11-02T01:41:40;11.63;;;2.30;;
17991;SDS011;9121;50.926;5.340;2022-11-02T01:44:21;10.55;;;2.83;;
17991;SDS011;9121;50.926;5.340;2022-11-02T01:46:52;14.75;;;2.47;;
17991;SDS011;9121;50.926;5.340;2022-11-02T01:49:26;9.40;;;2.50;;
17991;SDS011;9121;50.926;5.340;2022-11-02T01:51:57;15.32;;;2.97;;
17991;SDS011;9121;50.926;5.340;2022-11-02T01:54:29;15.38;;;2.17;;
17991;SDS011;9121;50.926;5.340;2022-11-02T01:57:03;11.75;;;2.85;;
17991;SDS011;9121;50.926;5.340;2022-11-02T01:59:32;10.52;;;2.28;;
17991;SDS011;9121;50.926;5.340;2022-11-02T02:02:02;14.20;;;2.70;;
17991;SDS011;9121;50.926;5.340;2022-11-02T02:04:34;7.18;;;1.92;;
17991;SDS011;9121;50.926;5.340;2022-11-02T02:07:03;10.07;;;2.83;;
17991;SDS011;9121;50.926;5.340;2022-11-02T02:09:31;11.52;;;1.80;;
17991;SDS011;9121;50.926;5.340;2022-11-02T02:11:58;10.65;;;2.63;;
17991;SDS011;9121;50.926;5.340;2022-11-02T02:14:26;13.77;;;2.08;;
17991;SDS011;9121;50.926;5.340;2022-11-02T02:16:56;14.57;;;2.85;;
17991;SDS011;9121;50.926;5.340;2022-11-02T02:19:37;8.50;;;1.95;;
17991;SDS011;9121;50.926;5.340;2022-11-02T02:22:14;13.10;;;1.80;;
17991;SDS011;9121;50.926;5.340;2022-11-02T02:24:50;15.77;;;2.15;;
17991;SDS011;9121;50.926;5.340;2022-11-02T02:27:30;10.98;;;2.35;;
17991;SDS011;9121;50.926;5.340;2022-11-02T02:30:11;7.18;;;1.50;;
17991;SDS011;9121;50.926;5.340;2022-11-02T02:32:43;14.65;;;1.70;;
17991;SDS011;9121;50.926;5.340;2022-11-02T02:35:20;11.93;;;1.88;;
17991;SDS011;9121;50.926;5.340;2022-11-02T02:37:53;7.82;;;2.15;;
17991;SDS011;9121;50.926;5.340;2022-11-02T02:40:24;10.57;;;1.73;;
17991;SDS011;9121;50.926;5.340;2022-11-02T02:42:57;6.00;;;1.50;;
17991;SDS011;9121;50.926;5.340;2022-11-02T02:45:31;5.05;;;1.60;;
17991;SDS011;9121;50.926;5.340;2022-11-02T02:48:00;10.50;;;1.90;;
17991;SDS011;9121;50.926;5.340;2022-11-02T02:50:33;9.93;;;1.90;;
17991;SDS011;9121;50.926;5.340;2022-11-02T02:53:05;10.18;;;2.05;;
17991;SDS011;9121;50.926;5.340;2022-11-02T02:55:34;9.15;;;2.05;;
17991;SDS011;9121;50.926;5.340;2022-11-02T02:58:06;13.27;;;1.77;;
17991;SDS011;9121;50.926;5.340;2022-11-02T03:00:38;16.88;;;2.28;;
17991;SDS011;9121;50.926;5.340;2022-11-02T03:03:11;8.68;;;1.88;;
17991;SDS011;9121;50.926;5.340;2022-11-02T03:05:43;7.80;;;1.85;;
17991;SDS011;9121;50.926;5.340;2022-11-02T03:08:20;14.73;;;2.20;;
17991;SDS011;9121;50.926;5.340;2022-11-02T03:10:47;9.38;;;1.60;;
17991;SDS011;9121;50.926;5.340;2022-11-02T03:13:30;7.88;;;2.00;;
17991;SDS011;9121;50.926;5.340;2022-11-02T03:16:06;13.57;;;2.67;;
17991;SDS011;9121;50.926;5.340;2022-11-02T03:18:43;15.23;;;2.22;;
17991;SDS011;9121;50.926;5.340;2022-11-02T03:21:14;13.52;;;2.78;;
17991;SDS011;9121;50.926;5.340;2022-11-02T03:23:47;10.05;;;2.45;;
17991;SDS011;9121;50.926;5.340;2022-11-02T03:26:21;11.75;;;2.22;;
17991;SDS011;9121;50.926;5.340;2022-11-02T03:28:57;9.68;;;2.30;;
17991;SDS011;9121;50.926;5.340;2022-11-02T03:31:32;14.60;;;2.47;;
17991;SDS011;9121;50.926;5.340;2022-11-02T03:34:04;12.30;;;2.00;;
17991;SDS011;9121;50.926;5.340;2022-11-02T03:36:38;12.15;;;2.55;;
17991;SDS011;9121;50.926;5.340;2022-11-02T03:39:10;14.88;;;2.17;;
17991;SDS011;9121;50.926;5.340;2022-11-02T03:41:40;14.52;;;2.53;;
17991;SDS011;9121;50.926;5.340;2022-11-02T03:44:13;11.45;;;2.50;;
17991;SDS011;9121;50.926;5.340;2022-11-02T03:46:44;14.98;;;2.13;;
17991;SDS011;9121;50.926;5.340;2022-11-02T03:49:14;14.32;;;2.17;;
17991;SDS011;9121;50.926;5.340;2022-11-02T03:51:44;11.23;;;2.28;;
17991;SDS011;9121;50.926;5.340;2022-11-02T03:54:14;11.18;;;2.10;;
17991;SDS011;9121;50.926;5.340;2022-11-02T03:56:45;13.68;;;2.42;;
17991;SDS011;9121;50.926;5.340;2022-11-02T03:59:16;12.30;;;2.17;;
17991;SDS011;9121;50.926;5.340;2022-11-02T04:01:43;12.43;;;2.53;;
17991;SDS011;9121;50.926;5.340;2022-11-02T04:04:12;16.42;;;2.55;;
17991;SDS011;9121;50.926;5.340;2022-11-02T04:06:39;13.98;;;2.33;;
17991;SDS011;9121;50.926;5.340;2022-11-02T04:09:08;12.30;;;2.17;;
17991;SDS011;9121;50.926;5.340;2022-11-02T04:11:36;14.45;;;2.58;;
17991;SDS011;9121;50.926;5.340;2022-11-02T04:14:22;11.43;;;2.35;;
17991;SDS011;9121;50.926;5.340;2022-11-02T04:17:04;16.48;;;2.88;;
17991;SDS011;9121;50.926;5.340;2022-11-02T04:19:48;10.45;;;2.65;;
17991;SDS011;9121;50.926;5.340;2022-11-02T04:22:16;16.15;;;2.20;;
17991;SDS011;9121;50.926;5.340;2022-11-02T04:25:01;17.27;;;2.97;;
17991;SDS011;9121;50.926;5.340;2022-11-02T04:27:42;15.32;;;2.95;;
17991;SDS011;9121;50.926;5.340;2022-11-02T04:30:13;18.20;;;3.17;;
17991;SDS011;9121;50.926;5.340;2022-11-02T04:32:41;21.50;;;2.67;;
17991;SDS011;9121;50.926;5.340;2022-11-02T04:35:26;15.13;;;2.20;;
17991;SDS011;9121;50.926;5.340;2022-11-02T04:37:54;16.25;;;2.60;;
17991;SDS011;9121;50.926;5.340;2022-11-02T04:40:38;11.30;;;2.25;;
17991;SDS011;9121;50.926;5.340;2022-11-02T04:43:05;14.32;;;2.42;;
17991;SDS011;9121;50.926;5.340;2022-11-02T04:45:34;12.10;;;2.85;;
17991;SDS011;9121;50.926;5.340;2022-11-02T04:48:01;14.82;;;2.50;;
17991;SDS011;9121;50.926;5.340;2022-11-02T04:50:29;16.13;;;2.67;;
17991;SDS011;9121;50.926;5.340;2022-11-02T04:52:57;15.40;;;2.47;;
17991;SDS011;9121;50.926;5.340;2022-11-02T04:55:25;17.30;;;3.28;;
17991;SDS011;9121;50.926;5.340;2022-11-02T04:57:52;18.83;;;2.92;;
17991;SDS011;9121;50.926;5.340;2022-11-02T05:00:19;15.63;;;2.63;;
17991;SDS011;9121;50.926;5.340;2022-11-02T05:02:48;11.65;;;2.72;;
17991;SDS011;9121;50.926;5.340;2022-11-02T05:05:16;17.70;;;2.63;;
17991;SDS011;9121;50.926;5.340;2022-11-02T05:07:43;16.33;;;2.80;;
17991;SDS011;9121;50.926;5.340;2022-11-02T05:10:10;13.48;;;2.33;;
17991;SDS011;9121;50.926;5.340;2022-11-02T05:12:37;13.53;;;2.50;;
17991;SDS011;9121;50.926;5.340;2022-11-02T05:15:05;13.82;;;2.53;;
17991;SDS011;9121;50.926;5.340;2022-11-02T05:17:32;15.05;;;2.55;;
17991;SDS011;9121;50.926;5.340;2022-11-02T05:20:00;22.73;;;2.70;;
17991;SDS011;9121;50.926;5.340;2022-11-02T05:22:29;17.02;;;2.33;;
17991;SDS011;9121;50.926;5.340;2022-11-02T05:24:56;17.42;;;2.33;;
17991;SDS011;9121;50.926;5.340;2022-11-02T05:27:23;14.93;;;2.95;;
17991;SDS011;9121;50.926;5.340;2022-11-02T05:29:50;19.00;;;2.90;;
17991;SDS011;9121;50.926;5.340;2022-11-02T05:32:17;15.70;;;3.78;;
17991;SDS011;9121;50.926;5.340;2022-11-02T05:34:44;13.95;;;2.45;;
17991;SDS011;9121;50.926;5.340;2022-11-02T05:37:12;12.82;;;2.20;;
17991;SDS011;9121;50.926;5.340;2022-11-02T05:39:39;16.45;;;2.63;;
17991;SDS011;9121;50.926;5.340;2022-11-02T05:42:06;11.32;;;2.53;;
17991;SDS011;9121;50.926;5.340;2022-11-02T05:44:33;19.63;;;3.15;;
17991;SDS011;9121;50.926;5.340;2022-11-02T05:47:00;16.67;;;2.85;;
17991;SDS011;9121;50.926;5.340;2022-11-02T05:49:27;18.13;;;2.58;;
17991;SDS011;9121;50.926;5.340;2022-11-02T05:51:54;12.70;;;2.75;;
17991;SDS011;9121;50.926;5.340;2022-11-02T05:54:22;15.10;;;2.20;;
17991;SDS011;9121;50.926;5.340;2022-11-02T05:56:49;14.85;;;2.70;;
17991;SDS011;9121;50.926;5.340;2022-11-02T05:59:16;21.02;;;3.08;;
17991;SDS011;9121;50.926;5.340;2022-11-02T06:01:43;13.55;;;2.15;;
17991;SDS011;9121;50.926;5.340;2022-11-02T06:04:10;18.42;;;2.85;;
17991;SDS011;9121;50.926;5.340;2022-11-02T06:06:37;12.35;;;2.33;;
17991;SDS011;9121;50.926;5.340;2022-11-02T06:09:04;18.85;;;3.38;;
17991;SDS011;9121;50.926;5.340;2022-11-02T06:11:33;18.50;;;2.60;;
17991;SDS011;9121;50.926;5.340;2022-11-02T06:14:00;14.25;;;2.80;;
17991;SDS011;9121;50.926;5.340;2022-11-02T06:16:28;15.05;;;3.05;;
17991;SDS011;9121;50.926;5.340;2022-11-02T06:18:55;21.23;;;3.20;;
17991;SDS011;9121;50.926;5.340;2022-11-02T06:21:22;18.25;;;2.35;;
17991;SDS011;9121;50.926;5.340;2022-11-02T06:23:50;12.48;;;2.80;;
17991;SDS011;9121;50.926;5.340;2022-11-02T06:26:17;13.40;;;2.40;;
17991;SDS011;9121;50.926;5.340;2022-11-02T06:28:45;15.73;;;3.10;;
17991;SDS011;9121;50.926;5.340;2022-11-02T06:31:12;25.17;;;2.75;;
17991;SDS011;9121;50.926;5.340;2022-11-02T06:33:41;16.33;;;2.55;;
17991;SDS011;9121;50.926;5.340;2022-11-02T06:36:09;16.75;;;3.03;;
17991;SDS011;9121;50.926;5.340;2022-11-02T06:38:36;20.27;;;3.00;;
17991;SDS011;9121;50.926;5.340;2022-11-02T06:41:03;20.00;;;3.13;;
17991;SDS011;9121;50.926;5.340;2022-11-02T06:43:31;18.02;;;2.58;;
17991;SDS011;9121;50.926;5.340;2022-11-02T06:46:02;16.45;;;3.55;;
17991;SDS011;9121;50.926;5.340;2022-11-02T06:48:29;20.17;;;3.70;;
17991;SDS011;9121;50.926;5.340;2022-11-02T06:50:57;20.67;;;3.63;;
17991;SDS011;9121;50.926;5.340;2022-11-02T06:53:24;21.10;;;2.65;;
17991;SDS011;9121;50.926;5.340;2022-11-02T06:55:51;16.75;;;2.95;;
17991;SDS011;9121;50.926;5.340;2022-11-02T06:58:18;27.00;;;3.58;;
17991;SDS011;9121;50.926;5.340;2022-11-02T07:00:46;20.30;;;2.83;;
17991;SDS011;9121;50.926;5.340;2022-11-02T07:03:14;16.67;;;2.77;;
17991;SDS011;9121;50.926;5.340;2022-11-02T07:05:42;22.27;;;3.67;;
17991;SDS011;9121;50.926;5.340;2022-11-02T07:08:16;18.98;;;2.95;;
17991;SDS011;9121;50.926;5.340;2022-11-02T07:10:43;15.93;;;3.00;;
17991;SDS011;9121;50.926;5.340;2022-11-02T07:13:10;16.65;;;3.22;;
17991;SDS011;9121;50.926;5.340;2022-11-02T07:15:37;14.68;;;2.88;;
17991;SDS011;9121;50.926;5.340;2022-11-02T07:18:04;20.73;;;3.03;;
17991;SDS011;9121;50.926;5.340;2022-11-02T07:20:34;16.67;;;3.28;;
17991;SDS011;9121;50.926;5.340;2022-11-02T07:23:01;23.15;;;3.17;;
17991;SDS011;9121;50.926;5.340;2022-11-02T07:25:29;14.88;;;3.30;;
17991;SDS011;9121;50.926;5.340;2022-11-02T07:27:58;21.17;;;3.17;;
17991;SDS011;9121;50.926;5.340;2022-11-02T07:30:26;21.67;;;3.23;;
17991;SDS011;9121;50.926;5.340;2022-11-02T07:32:53;23.57;;;3.83;;
17991;SDS011;9121;50.926;5.340;2022-11-02T07:35:20;19.80;;;2.83;;
17991;SDS011;9121;50.926;5.340;2022-11-02T07:37:55;27.27;;;3.28;;
17991;SDS011;9121;50.926;5.340;2022-11-02T07:40:24;21.48;;;3.15;;
17991;SDS011;9121;50.926;5.340;2022-11-02T07:42:51;16.98;;;3.38;;
17991;SDS011;9121;50.926;5.340;2022-11-02T07:45:19;18.92;;;3.30;;
17991;SDS011;9121;50.926;5.340;2022-11-02T07:47:46;19.45;;;3.83;;
17991;SDS011;9121;50.926;5.340;2022-11-02T07:50:15;22.50;;;3.08;;
17991;SDS011;9121;50.926;5.340;2022-11-02T07:52:44;17.98;;;3.10;;
17991;SDS011;9121;50.926;5.340;2022-11-02T07:55:13;22.17;;;3.25;;
17991;SDS011;9121;50.926;5.340;2022-11-02T07:57:42;24.13;;;3.30;;
17991;SDS011;9121;50.926;5.340;2022-11-02T08:00:17;21.50;;;3.22;;
17991;SDS011;9121;50.926;5.340;2022-11-02T08:02:44;24.23;;;3.17;;
17991;SDS011;9121;50.926;5.340;2022-11-02T08:05:11;19.70;;;3.45;;
17991;SDS011;9121;50.926;5.340;2022-11-02T08:07:38;21.10;;;3.83;;
17991;SDS011;9121;50.926;5.340;2022-11-02T08:10:05;21.58;;;3.20;;
17991;SDS011;9121;50.926;5.340;2022-11-02T08:12:34;19.13;;;2.63;;
17991;SDS011;9121;50.926;5.340;2022-11-02T08:15:01;14.68;;;2.40;;
17991;SDS011;9121;50.926;5.340;2022-11-02T08:17:29;18.03;;;3.60;;
17991;SDS011;9121;50.926;5.340;2022-11-02T08:19:56;18.20;;;3.00;;
17991;SDS011;9121;50.926;5.340;2022-11-02T08:22:23;23.60;;;3.72;;
17991;SDS011;9121;50.926;5.340;2022-11-02T08:24:50;17.05;;;3.85;;
17991;SDS011;9121;50.926;5.340;2022-11-02T08:27:17;23.30;;;3.05;;
17991;SDS011;9121;50.926;5.340;2022-11-02T08:29:45;22.90;;;3.25;;
17991;SDS011;9121;50.926;5.340;2022-11-02T08:32:12;25.15;;;3.03;;
17991;SDS011;9121;50.926;5.340;2022-11-02T08:34:39;18.65;;;3.58;;
17991;SDS011;9121;50.926;5.340;2022-11-02T08:37:06;21.67;;;3.63;;
17991;SDS011;9121;50.926;5.340;2022-11-02T08:39:33;21.63;;;3.13;;
17991;SDS011;9121;50.926;5.340;2022-11-02T08:42:01;18.48;;;3.72;;
17991;SDS011;9121;50.926;5.340;2022-11-02T08:44:28;24.15;;;3.17;;
17991;SDS011;9121;50.926;5.340;2022-11-02T08:46:56;23.83;;;3.22;;
17991;SDS011;9121;50.926;5.340;2022-11-02T08:49:23;19.10;;;3.20;;
17991;SDS011;9121;50.926;5.340;2022-11-02T08:51:50;15.52;;;3.75;;
17991;SDS011;9121;50.926;5.340;2022-11-02T08:54:17;19.30;;;3.58;;
17991;SDS011;9121;50.926;5.340;2022-11-02T08:56:44;23.45;;;2.90;;
17991;SDS011;9121;50.926;5.340;2022-11-02T08:59:12;21.25;;;3.30;;
17991;SDS011;9121;50.926;5.340;2022-11-02T09:01:39;22.02;;;3.58;;
17991;SDS011;9121;50.926;5.340;2022-11-02T09:04:08;23.13;;;4.13;;
17991;SDS011;9121;50.926;5.340;2022-11-02T09:06:34;20.27;;;3.40;;
17991;SDS011;9121;50.926;5.340;2022-11-02T09:09:01;14.93;;;3.58;;
17991;SDS011;9121;50.926;5.340;2022-11-02T09:11:28;16.45;;;3.58;;
17991;SDS011;9121;50.926;5.340;2022-11-02T09:13:56;24.70;;;3.65;;
17991;SDS011;9121;50.926;5.340;2022-11-02T09:16:23;26.55;;;3.67;;
17991;SDS011;9121;50.926;5.340;2022-11-02T09:18:50;20.13;;;3.00;;
17991;SDS011;9121;50.926;5.340;2022-11-02T09:21:18;22.38;;;3.03;;
17991;SDS011;9121;50.926;5.340;2022-11-02T09:23:45;22.45;;;2.85;;
17991;SDS011;9121;50.926;5.340;2022-11-02T09:26:13;21.77;;;3.92;;
17991;SDS011;9121;50.926;5.340;2022-11-02T09:28:40;18.45;;;3.40;;
17991;SDS011;9121;50.926;5.340;2022-11-02T09:31:07;22.50;;;3.75;;
17991;SDS011;9121;50.926;5.340;2022-11-02T09:33:34;22.30;;;3.63;;
17991;SDS011;9121;50.926;5.340;2022-11-02T09:36:02;21.50;;;3.40;;
17991;SDS011;9121;50.926;5.340;2022-11-02T09:38:32;16.13;;;3.28;;
17991;SDS011;9121;50.926;5.340;2022-11-02T09:41:00;31.75;;;3.70;;
17991;SDS011;9121;50.926;5.340;2022-11-02T09:43:39;19.25;;;3.45;;
17991;SDS011;9121;50.926;5.340;2022-11-02T09:46:23;27.13;;;3.55;;
17991;SDS011;9121;50.926;5.340;2022-11-02T09:48:53;21.42;;;3.28;;
17991;SDS011;9121;50.926;5.340;2022-11-02T09:51:24;20.65;;;3.78;;
17991;SDS011;9121;50.926;5.340;2022-11-02T09:53:57;23.35;;;3.42;;
17991;SDS011;9121;50.926;5.340;2022-11-02T09:56:31;26.38;;;3.85;;
17991;SDS011;9121;50.926;5.340;2022-11-02T09:59:00;29.23;;;4.07;;
17991;SDS011;9121;50.926;5.340;2022-11-02T10:07:28;24.02;;;3.75;;
17991;SDS011;9121;50.926;5.340;2022-11-02T10:10:08;16.65;;;3.15;;
17991;SDS011;9121;50.926;5.340;2022-11-02T10:12:41;26.30;;;3.40;;
17991;SDS011;9121;50.926;5.340;2022-11-02T10:15:15;22.17;;;3.45;;
17991;SDS011;9121;50.926;5.340;2022-11-02T10:17:45;17.40;;;3.60;;
17991;SDS011;9121;50.926;5.340;2022-11-02T10:20:25;23.52;;;4.05;;
17991;SDS011;9121;50.926;5.340;2022-11-02T10:22:53;20.95;;;3.28;;
17991;SDS011;9121;50.926;5.340;2022-11-02T10:25:25;25.67;;;4.13;;
17991;SDS011;9121;50.926;5.340;2022-11-02T10:27:53;23.40;;;3.53;;
17991;SDS011;9121;50.926;5.340;2022-11-02T10:30:28;18.05;;;3.50;;
17991;SDS011;9121;50.926;5.340;2022-11-02T10:32:56;23.13;;;3.40;;
17991;SDS011;9121;50.926;5.340;2022-11-02T10:35:26;19.48;;;3.33;;
17991;SDS011;9121;50.926;5.340;2022-11-02T10:38:03;22.30;;;3.95;;
17991;SDS011;9121;50.926;5.340;2022-11-02T10:40:46;18.35;;;3.60;;
17991;SDS011;9121;50.926;5.340;2022-11-02T10:43:26;26.67;;;3.70;;
17991;SDS011;9121;50.926;5.340;2022-11-02T10:46:06;18.02;;;3.35;;
17991;SDS011;9121;50.926;5.340;2022-11-02T10:48:51;22.13;;;3.58;;
17991;SDS011;9121;50.926;5.340;2022-11-02T10:51:25;18.02;;;3.90;;
17991;SDS011;9121;50.926;5.340;2022-11-02T10:53:53;20.02;;;4.05;;
17991;SDS011;9121;50.926;5.340;2022-11-02T10:56:23;14.52;;;3.05;;
17991;SDS011;9121;50.926;5.340;2022-11-02T10:58:56;21.65;;;4.05;;
17991;SDS011;9121;50.926;5.340;2022-11-02T11:01:28;28.23;;;3.75;;
17991;SDS011;9121;50.926;5.340;2022-11-02T11:03:58;25.27;;;3.65;;
17991;SDS011;9121;50.926;5.340;2022-11-02T11:06:27;20.85;;;3.65;;
17991;SDS011;9121;50.926;5.340;2022-11-02T11:09:00;21.67;;;3.58;;
17991;SDS011;9121;50.926;5.340;2022-11-02T11:11:33;16.20;;;3.10;;
17991;SDS011;9121;50.926;5.340;2022-11-02T11:14:02;24.17;;;3.05;;
17991;SDS011;9121;50.926;5.340;2022-11-02T11:16:35;28.63;;;4.13;;
17991;SDS011;9121;50.926;5.340;2022-11-02T11:19:06;23.92;;;3.25;;
17991;SDS011;9121;50.926;5.340;2022-11-02T11:21:43;18.17;;;3.53;;
17991;SDS011;9121;50.926;5.340;2022-11-02T11:24:20;14.55;;;3.20;;
17991;SDS011;9121;50.926;5.340;2022-11-02T11:27:00;17.38;;;3.10;;
17991;SDS011;9121;50.926;5.340;2022-11-02T11:29:29;17.23;;;3.30;;
17991;SDS011;9121;50.926;5.340;2022-11-02T11:31:57;17.23;;;3.13;;
17991;SDS011;9121;50.926;5.340;2022-11-02T11:34:25;19.23;;;3.58;;
17991;SDS011;9121;50.926;5.340;2022-11-02T11:37:02;16.58;;;3.58;;
17991;SDS011;9121;50.926;5.340;2022-11-02T11:39:31;16.38;;;3.40;;
17991;SDS011;9121;50.926;5.340;2022-11-02T11:42:00;22.27;;;3.55;;
17991;SDS011;9121;50.926;5.340;2022-11-02T11:44:29;22.75;;;3.55;;
17991;SDS011;9121;50.926;5.340;2022-11-02T11:46:57;18.98;;;2.80;;
17991;SDS011;9121;50.926;5.340;2022-11-02T11:49:26;18.92;;;3.33;;
17991;SDS011;9121;50.926;5.340;2022-11-02T11:51:55;15.77;;;2.80;;
17991;SDS011;9121;50.926;5.340;2022-11-02T11:54:24;32.88;;;4.90;;
17991;SDS011;9121;50.926;5.340;2022-11-02T11:56:52;22.65;;;3.15;;
17991;SDS011;9121;50.926;5.340;2022-11-02T11:59:23;15.50;;;3.00;;
17991;SDS011;9121;50.926;5.340;2022-11-02T12:01:53;20.98;;;3.28;;
17991;SDS011;9121;50.926;5.340;2022-11-02T12:04:28;14.93;;;2.95;;
17991;SDS011;9121;50.926;5.340;2022-11-02T12:10:05;14.88;;;2.75;;
17991;SDS011;9121;50.926;5.340;2022-11-02T12:12:43;16.10;;;3.00;;
17991;SDS011;9121;50.926;5.340;2022-11-02T12:15:24;24.48;;;3.92;;
17991;SDS011;9121;50.926;5.340;2022-11-02T12:18:05;22.65;;;3.08;;
17991;SDS011;9121;50.926;5.340;2022-11-02T12:20:49;13.48;;;2.38;;
17991;SDS011;9121;50.926;5.340;2022-11-02T12:23:28;10.93;;;2.50;;
17991;SDS011;9121;50.926;5.340;2022-11-02T12:26:13;15.75;;;2.90;;
17991;SDS011;9121;50.926;5.340;2022-11-02T12:28:57;16.55;;;2.53;;
17991;SDS011;9121;50.926;5.340;2022-11-02T12:31:34;14.25;;;2.55;;
17991;SDS011;9121;50.926;5.340;2022-11-02T12:34:06;14.73;;;3.10;;
17991;SDS011;9121;50.926;5.340;2022-11-02T12:36:49;12.30;;;2.80;;
17991;SDS011;9121;50.926;5.340;2022-11-02T12:39:26;22.58;;;3.40;;
17991;SDS011;9121;50.926;5.340;2022-11-02T12:42:10;13.52;;;2.65;;
17991;SDS011;9121;50.926;5.340;2022-11-02T12:44:52;13.43;;;2.80;;
17991;SDS011;9121;50.926;5.340;2022-11-02T12:47:37;11.98;;;2.55;;
17991;SDS011;9121;50.926;5.340;2022-11-02T12:50:13;18.95;;;2.78;;
17991;SDS011;9121;50.926;5.340;2022-11-02T12:52:53;14.90;;;2.72;;
17991;SDS011;9121;50.926;5.340;2022-11-02T12:55:32;14.52;;;2.63;;
17991;SDS011;9121;50.926;5.340;2022-11-02T12:58:03;14.70;;;2.35;;
17991;SDS011;9121;50.926;5.340;2022-11-02T13:00:34;10.13;;;2.03;;
17991;SDS011;9121;50.926;5.340;2022-11-02T13:03:06;15.05;;;2.85;;
17991;SDS011;9121;50.926;5.340;2022-11-02T13:05:47;9.68;;;2.40;;
17991;SDS011;9121;50.926;5.340;2022-11-02T13:08:18;17.92;;;2.75;;
17991;SDS011;9121;50.926;5.340;2022-11-02T13:10:50;16.30;;;2.88;;
17991;SDS011;9121;50.926;5.340;2022-11-02T13:13:23;11.63;;;2.78;;
17991;SDS011;9121;50.926;5.340;2022-11-02T13:15:56;9.70;;;2.88;;
17991;SDS011;9121;50.926;5.340;2022-11-02T13:18:28;12.25;;;2.75;;
17991;SDS011;9121;50.926;5.340;2022-11-02T13:20:58;8.68;;;2.42;;
17991;SDS011;9121;50.926;5.340;2022-11-02T13:23:30;14.15;;;2.78;;
17991;SDS011;9121;50.926;5.340;2022-11-02T13:26:02;15.00;;;2.70;;
17991;SDS011;9121;50.926;5.340;2022-11-02T13:28:33;12.73;;;2.38;;
17991;SDS011;9121;50.926;5.340;2022-11-02T13:31:08;19.98;;;2.58;;
17991;SDS011;9121;50.926;5.340;2022-11-02T13:33:42;16.63;;;2.25;;
17991;SDS011;9121;50.926;5.340;2022-11-02T13:36:13;15.77;;;2.97;;
17991;SDS011;9121;50.926;5.340;2022-11-02T13:38:41;12.82;;;3.00;;
17991;SDS011;9121;50.926;5.340;2022-11-02T13:41:25;16.83;;;2.33;;
17991;SDS011;9121;50.926;5.340;2022-11-02T13:44:16;13.25;;;2.60;;
17991;SDS011;9121;50.926;5.340;2022-11-02T13:47:07;10.35;;;2.22;;
17991;SDS011;9121;50.926;5.340;2022-11-02T13:49:50;15.73;;;2.55;;
17991;SDS011;9121;50.926;5.340;2022-11-02T13:52:19;11.52;;;2.60;;
17991;SDS011;9121;50.926;5.340;2022-11-02T13:54:52;10.88;;;1.90;;
17991;SDS011;9121;50.926;5.340;2022-11-02T13:57:27;16.23;;;2.70;;
17991;SDS011;9121;50.926;5.340;2022-11-02T13:59:59;15.15;;;2.33;;
17991;SDS011;9121;50.926;5.340;2022-11-02T14:02:27;11.43;;;2.47;;
17991;SDS011;9121;50.926;5.340;2022-11-02T14:05:00;18.38;;;2.67;;
17991;SDS011;9121;50.926;5.340;2022-11-02T14:07:27;23.80;;;2.80;;
17991;SDS011;9121;50.926;5.340;2022-11-02T14:10:00;14.00;;;2.55;;
17991;SDS011;9121;50.926;5.340;2022-11-02T14:12:39;16.73;;;2.38;;
17991;SDS011;9121;50.926;5.340;2022-11-02T14:18:13;14.57;;;1.90;;
17991;SDS011;9121;50.926;5.340;2022-11-02T14:20:57;16.80;;;2.58;;
17991;SDS011;9121;50.926;5.340;2022-11-02T14:23:45;12.25;;;2.40;;
17991;SDS011;9121;50.926;5.340;2022-11-02T14:26:28;6.85;;;1.88;;
17991;SDS011;9121;50.926;5.340;2022-11-02T14:28:57;6.53;;;1.95;;
17991;SDS011;9121;50.926;5.340;2022-11-02T14:31:33;11.73;;;1.92;;
17991;SDS011;9121;50.926;5.340;2022-11-02T14:34:16;16.33;;;2.50;;
17991;SDS011;9121;50.926;5.340;2022-11-02T14:37:13;10.98;;;2.15;;
17991;SDS011;9121;50.926;5.340;2022-11-02T14:40:12;15.15;;;3.05;;
17991;SDS011;9121;50.926;5.340;2022-11-02T14:45:51;14.20;;;2.55;;
17991;SDS011;9121;50.926;5.340;2022-11-02T14:48:30;16.15;;;2.90;;
17991;SDS011;9121;50.926;5.340;2022-11-02T14:51:11;12.30;;;2.53;;
17991;SDS011;9121;50.926;5.340;2022-11-02T14:53:44;12.75;;;1.88;;
17991;SDS011;9121;50.926;5.340;2022-11-02T14:56:11;10.25;;;2.35;;
17991;SDS011;9121;50.926;5.340;2022-11-02T14:58:39;13.60;;;2.33;;
17991;SDS011;9121;50.926;5.340;2022-11-02T15:01:19;21.05;;;2.85;;
17991;SDS011;9121;50.926;5.340;2022-11-02T15:03:46;11.02;;;2.05;;
17991;SDS011;9121;50.926;5.340;2022-11-02T15:06:15;13.38;;;2.08;;
17991;SDS011;9121;50.926;5.340;2022-11-02T15:08:49;12.75;;;2.95;;
17991;SDS011;9121;50.926;5.340;2022-11-02T15:20:23;10.77;;;1.92;;
17991;SDS011;9121;50.926;5.340;2022-11-02T15:23:11;19.15;;;2.72;;
17991;SDS011;9121;50.926;5.340;2022-11-02T15:25:47;7.57;;;1.75;;
17991;SDS011;9121;50.926;5.340;2022-11-02T15:28:17;17.52;;;2.85;;
17991;SDS011;9121;50.926;5.340;2022-11-02T15:30:48;9.98;;;2.13;;
17991;SDS011;9121;50.926;5.340;2022-11-02T15:33:19;12.55;;;2.95;;
17991;SDS011;9121;50.926;5.340;2022-11-02T15:35:53;18.58;;;2.47;;